createdAt,value
2019-01-20T00:00:59.009Z,95.30
2019-01-20T00:03:31.025Z,95.20
2019-01-20T00:06:01.525Z,95.40
2019-01-20T00:08:32.003Z,95.60
2019-01-20T00:11:04.130Z,95.60
2019-01-20T00:13:34.733Z,95.90
2019-01-20T00:16:05.451Z,95.90
2019-01-20T00:18:37.173Z,95.70
2019-01-20T00:21:07.739Z,95.50
2019-01-20T00:23:39.342Z,95.40
2019-01-20T00:26:09.814Z,95.70
2019-01-20T00:28:40.330Z,95.80
2019-01-20T00:31:10.792Z,95.80
2019-01-20T00:33:41.287Z,95.90
2019-01-20T00:36:11.840Z,95.70
2019-01-20T00:38:42.341Z,95.70
2019-01-20T00:41:12.817Z,95.30
2019-01-20T00:43:43.324Z,95.10
2019-01-20T00:46:13.856Z,95.00
2019-01-20T00:48:44.371Z,94.90
2019-01-20T00:51:15.000Z,94.60
2019-01-20T00:53:45.502Z,94.60
2019-01-20T00:56:16.002Z,94.70
2019-01-20T00:58:46.467Z,94.80
2019-01-20T01:01:17.035Z,95.00
2019-01-20T01:03:47.573Z,95.10
2019-01-20T01:06:18.581Z,95.40
2019-01-20T01:08:49.055Z,95.50
2019-01-20T01:11:19.630Z,95.30
2019-01-20T01:13:50.104Z,95.30
2019-01-20T01:16:20.593Z,95.40
2019-01-20T01:18:52.631Z,95.50
2019-01-20T01:21:23.167Z,95.60
2019-01-20T01:23:53.676Z,95.40
2019-01-20T01:26:25.378Z,95.40
2019-01-20T01:28:55.906Z,95.30
2019-01-20T01:31:26.379Z,95.30
2019-01-20T01:33:56.901Z,94.80
2019-01-20T01:36:27.367Z,94.90
2019-01-20T01:38:57.866Z,94.80
2019-01-20T01:41:29.573Z,94.90
2019-01-20T01:44:00.188Z,95.00
2019-01-20T01:46:30.630Z,95.00
2019-01-20T01:49:01.123Z,95.00
2019-01-20T01:51:33.262Z,95.00
2019-01-20T01:54:03.740Z,95.00
2019-01-20T01:56:34.322Z,95.60
2019-01-20T01:59:05.163Z,95.90
2019-01-20T02:01:35.665Z,95.80
2019-01-20T02:04:06.122Z,95.70
2019-01-20T02:06:36.618Z,95.10
2019-01-20T02:09:08.854Z,94.90
2019-01-20T02:11:46.584Z,94.90
2019-01-20T02:14:11.519Z,94.70
2019-01-20T02:16:43.561Z,94.60
2019-01-20T02:19:14.072Z,94.70
2019-01-20T02:21:44.544Z,94.90
2019-01-20T02:24:15.068Z,95.30
2019-01-20T02:26:46.569Z,95.40
2019-01-20T02:29:17.064Z,95.70
2019-01-20T02:31:47.568Z,96.00
2019-01-20T02:34:19.941Z,96.30
2019-01-20T02:36:50.411Z,96.50
2019-01-20T02:39:20.903Z,96.50
2019-01-20T02:41:55.169Z,96.40
2019-01-20T02:44:23.939Z,96.60
2019-01-20T02:46:54.416Z,96.60
2019-01-20T02:49:24.926Z,96.70
2019-01-20T02:51:55.386Z,97.00
2019-01-20T02:54:25.879Z,96.70
2019-01-20T02:56:56.377Z,96.70
2019-01-20T02:59:26.856Z,96.70
2019-01-20T03:01:59.126Z,96.70
2019-01-20T03:04:30.331Z,96.50
2019-01-20T03:07:00.900Z,96.10
2019-01-20T03:09:31.374Z,96.10
2019-01-20T03:12:04.839Z,96.10
2019-01-20T03:14:35.307Z,96.00
2019-01-20T03:17:05.959Z,96.10
2019-01-20T03:19:36.500Z,96.00
2019-01-20T03:22:07.187Z,95.90
2019-01-20T03:24:37.686Z,95.90
2019-01-20T03:27:08.369Z,95.70
2019-01-20T03:29:38.872Z,95.60
2019-01-20T03:32:09.409Z,95.50
2019-01-20T03:34:39.999Z,95.90
2019-01-20T03:37:10.600Z,95.80
2019-01-20T03:39:41.098Z,95.80
2019-01-20T03:42:12.346Z,95.70
2019-01-20T03:44:43.026Z,95.70
2019-01-20T03:47:13.526Z,95.80
2019-01-20T03:49:43.986Z,95.80
2019-01-20T03:52:14.476Z,96.10
2019-01-20T03:54:45.025Z,96.40
2019-01-20T03:57:18.322Z,96.70
2019-01-20T03:59:48.899Z,96.80
2019-01-20T04:02:21.013Z,96.70
2019-01-20T04:04:53.143Z,96.60
2019-01-20T04:07:23.689Z,96.30
2019-01-20T04:09:54.294Z,96.00
2019-01-20T04:12:24.819Z,95.90
2019-01-20T04:14:56.416Z,96.00
2019-01-20T04:17:27.300Z,95.90
2019-01-20T04:19:57.801Z,95.90
2019-01-20T04:22:28.350Z,95.80
2019-01-20T04:24:58.948Z,95.70
2019-01-20T04:27:29.424Z,95.70
2019-01-20T04:29:59.994Z,95.70
2019-01-20T04:32:30.471Z,95.80
2019-01-20T04:35:00.983Z,95.80
2019-01-20T04:37:31.520Z,95.90
2019-01-20T04:40:02.052Z,95.60
2019-01-20T04:42:35.011Z,95.40
2019-01-20T04:45:10.497Z,95.50
2019-01-20T04:47:42.423Z,95.90
2019-01-20T04:50:22.389Z,96.10
2019-01-20T04:52:53.956Z,96.20
2019-01-20T04:55:24.556Z,96.20
2019-01-20T04:57:55.095Z,95.80
2019-01-20T05:00:27.505Z,95.30
2019-01-20T05:02:58.052Z,95.00
2019-01-20T05:05:28.544Z,94.90
2019-01-20T05:07:59.003Z,95.10
2019-01-20T05:10:30.454Z,95.40
2019-01-20T05:13:01.673Z,95.40
2019-01-20T05:15:32.179Z,95.40
2019-01-20T05:18:02.661Z,95.50
2019-01-20T05:20:34.610Z,96.10
2019-01-20T05:23:05.155Z,96.00
2019-01-20T05:25:35.672Z,96.30
2019-01-20T05:28:06.116Z,96.50
2019-01-20T05:30:37.662Z,96.80
2019-01-20T05:33:08.129Z,97.00
2019-01-20T05:35:38.631Z,97.10
2019-01-20T05:38:09.097Z,97.20
2019-01-20T05:40:39.683Z,97.10
2019-01-20T05:43:10.212Z,97.30
2019-01-20T05:45:40.721Z,97.20
2019-01-20T05:48:12.318Z,97.10
2019-01-20T05:50:42.824Z,96.80
2019-01-20T05:53:14.830Z,96.10
2019-01-20T05:55:45.337Z,95.80
2019-01-20T05:58:15.839Z,95.90
2019-01-20T06:00:46.339Z,95.80
2019-01-20T06:03:17.372Z,96.10
2019-01-20T06:05:47.871Z,96.40
2019-01-20T06:08:18.412Z,96.40
2019-01-20T06:10:48.915Z,96.50
2019-01-20T06:13:19.381Z,96.70
2019-01-20T06:15:49.882Z,96.70
2019-01-20T06:18:21.578Z,96.80
2019-01-20T06:20:52.050Z,96.60
2019-01-20T06:23:22.540Z,96.90
2019-01-20T06:25:53.033Z,96.80
2019-01-20T06:28:23.526Z,96.60
2019-01-20T06:30:54.033Z,96.50
2019-01-20T06:33:26.038Z,96.20
2019-01-20T06:35:56.530Z,96.00
2019-01-20T06:38:27.015Z,96.00
2019-01-20T06:40:57.533Z,96.10
2019-01-20T06:43:27.999Z,95.90
2019-01-20T06:45:58.538Z,96.00
2019-01-20T06:48:29.036Z,96.00
2019-01-20T06:50:59.501Z,95.80
2019-01-20T06:53:30.000Z,96.00
2019-01-20T06:56:00.507Z,96.10
2019-01-20T06:58:30.972Z,96.70
2019-01-20T07:01:01.507Z,97.10
2019-01-20T07:03:31.970Z,97.20
2019-01-20T07:06:02.468Z,97.20
2019-01-20T07:08:33.049Z,96.90
2019-01-20T07:11:03.513Z,96.70
2019-01-20T07:13:34.017Z,96.70
2019-01-20T07:16:06.075Z,96.80
2019-01-20T07:18:36.538Z,97.00
2019-01-20T07:21:07.026Z,97.10
2019-01-20T07:23:37.499Z,97.10
2019-01-20T07:26:07.989Z,97.00
2019-01-20T07:28:38.455Z,96.90
2019-01-20T07:31:10.601Z,96.80
2019-01-20T07:33:41.077Z,96.50
2019-01-20T07:36:12.608Z,96.10
2019-01-20T07:38:44.721Z,95.80
2019-01-20T07:41:15.214Z,95.80
2019-01-20T07:43:45.718Z,96.00
2019-01-20T07:46:16.191Z,96.20
2019-01-20T07:48:46.675Z,96.00
2019-01-20T07:51:17.219Z,95.70
2019-01-20T07:53:47.683Z,95.00
2019-01-20T07:56:18.220Z,94.50
2019-01-20T07:58:48.686Z,94.10
2019-01-20T08:01:19.202Z,94.00
2019-01-20T08:03:49.676Z,93.80
2019-01-20T08:06:20.170Z,94.00
2019-01-20T08:08:50.658Z,94.20
2019-01-20T08:11:21.190Z,93.90
2019-01-20T08:13:51.689Z,93.70
2019-01-20T08:16:22.269Z,93.60
2019-01-20T08:18:52.807Z,93.90
2019-01-20T08:21:23.306Z,94.30
2019-01-20T08:23:53.774Z,94.30
2019-01-20T08:26:24.283Z,94.60
2019-01-20T08:28:54.756Z,94.50
2019-01-20T08:31:25.254Z,93.90
2019-01-20T08:33:55.754Z,93.40
2019-01-20T08:36:26.415Z,93.50
2019-01-20T08:38:57.027Z,93.00
2019-01-20T08:41:27.563Z,92.30
2019-01-20T08:43:58.070Z,92.00
2019-01-20T08:46:35.734Z,92.10
2019-01-20T08:49:06.311Z,91.90
2019-01-20T08:51:36.852Z,91.70
2019-01-20T08:54:07.351Z,91.70
2019-01-20T08:56:38.918Z,91.40
2019-01-20T08:59:09.456Z,91.30
2019-01-20T09:01:39.904Z,91.20
2019-01-20T09:04:10.437Z,90.70
2019-01-20T09:06:40.917Z,90.80
2019-01-20T09:09:11.488Z,91.00
2019-01-20T09:11:42.054Z,91.30
2019-01-20T09:14:12.549Z,91.50
2019-01-20T09:16:43.017Z,91.40
2019-01-20T09:19:13.522Z,91.40
2019-01-20T09:21:44.159Z,91.30
2019-01-20T09:24:14.661Z,91.60
2019-01-20T09:26:45.120Z,91.10
2019-01-20T09:29:15.621Z,90.90
2019-01-20T09:31:46.103Z,90.90
2019-01-20T09:34:16.603Z,90.80
2019-01-20T09:36:47.062Z,90.80
2019-01-20T09:39:17.574Z,90.70
2019-01-20T09:41:48.069Z,90.40
2019-01-20T09:44:18.538Z,90.70
2019-01-20T09:46:50.729Z,90.60
2019-01-20T09:49:21.194Z,89.40
2019-01-20T09:51:52.174Z,89.80
2019-01-20T09:54:22.639Z,89.30
2019-01-20T09:56:53.236Z,89.40
2019-01-20T09:59:23.699Z,88.60
2019-01-20T10:01:54.951Z,87.30
2019-01-20T10:04:25.408Z,87.30
2019-01-20T10:06:55.906Z,86.40
2019-01-20T10:09:27.692Z,86.30
2019-01-20T10:11:58.202Z,86.00
2019-01-20T10:14:28.658Z,86.50
2019-01-20T10:16:59.718Z,85.90
2019-01-20T10:19:30.377Z,86.40
2019-01-20T10:22:00.910Z,87.30
2019-01-20T10:24:31.662Z,86.50
2019-01-20T10:27:02.124Z,86.60
2019-01-20T10:29:32.632Z,85.70
2019-01-20T10:32:03.115Z,85.50
2019-01-20T10:34:34.573Z,84.90
2019-01-20T10:37:06.371Z,84.80
2019-01-20T10:39:36.962Z,83.90
2019-01-20T10:42:08.789Z,83.50
2019-01-20T10:44:39.276Z,83.70
2019-01-20T10:47:09.768Z,83.80
2019-01-20T10:49:41.856Z,84.00
2019-01-20T10:52:12.363Z,84.10
2019-01-20T10:54:42.817Z,82.70
2019-01-20T10:57:13.327Z,81.20
2019-01-20T10:59:43.862Z,81.60
2019-01-20T11:02:14.340Z,79.80
2019-01-20T11:04:46.334Z,80.20
2019-01-20T11:07:16.840Z,79.60
2019-01-20T11:09:47.312Z,79.20
2019-01-20T11:12:19.026Z,78.00
2019-01-20T11:14:49.482Z,77.00
2019-01-20T11:17:20.041Z,74.80
2019-01-20T11:19:50.497Z,75.70
2019-01-20T11:22:21.946Z,75.20
2019-01-20T11:24:52.401Z,73.60
2019-01-20T11:27:22.889Z,70.90
2019-01-20T11:29:53.346Z,70.10
2019-01-20T11:32:23.898Z,69.10
2019-01-20T11:34:54.391Z,68.60
2019-01-20T11:37:24.882Z,68.40
2019-01-20T11:39:55.437Z,69.00
2019-01-20T11:42:25.937Z,70.10
2019-01-20T11:44:56.416Z,70.30
2019-01-20T11:47:27.142Z,70.40
2019-01-20T11:49:57.633Z,69.60
2019-01-20T11:52:28.095Z,70.00
2019-01-20T11:54:58.595Z,69.60
2019-01-20T11:57:29.131Z,69.70
2019-01-20T11:59:59.647Z,71.10
2019-01-20T12:02:31.164Z,71.70
2019-01-20T12:05:03.355Z,72.30
2019-01-20T12:07:36.402Z,70.40
2019-01-20T12:10:10.301Z,70.00
2019-01-20T12:12:41.455Z,68.90
2019-01-20T12:15:16.638Z,67.80
2019-01-20T12:17:48.762Z,68.40
2019-01-20T12:20:19.439Z,68.50
2019-01-20T12:22:49.912Z,67.60
2019-01-20T12:25:22.306Z,66.80
2019-01-20T12:27:52.759Z,67.00
2019-01-20T12:30:33.227Z,66.60
2019-01-20T12:33:06.795Z,64.70
2019-01-20T12:35:37.357Z,64.00
2019-01-20T12:38:07.954Z,67.40
2019-01-20T12:40:50.806Z,66.90
2019-01-20T12:43:21.271Z,67.10
2019-01-20T12:45:51.763Z,68.70
2019-01-20T12:48:23.903Z,67.90
2019-01-20T12:50:54.360Z,66.90
2019-01-20T12:53:24.859Z,65.40
2019-01-20T12:55:55.308Z,63.80
2019-01-20T12:58:25.874Z,61.10
2019-01-20T13:00:56.341Z,61.20
2019-01-20T13:03:26.834Z,60.60
2019-01-20T13:05:57.296Z,57.60
2019-01-20T13:08:27.791Z,57.30
2019-01-20T13:10:58.253Z,55.90
2019-01-20T13:13:28.827Z,56.80
2019-01-20T13:15:59.314Z,59.70
2019-01-20T13:18:31.401Z,59.40
2019-01-20T13:21:01.880Z,58.50
2019-01-20T13:23:32.343Z,59.60
2019-01-20T13:26:02.897Z,63.10
2019-01-20T13:28:33.398Z,62.90
2019-01-20T13:31:03.854Z,62.50
2019-01-20T13:33:34.358Z,64.20
2019-01-20T13:36:07.252Z,62.20
2019-01-20T13:38:38.112Z,63.00
2019-01-20T13:41:10.584Z,64.80
2019-01-20T13:43:41.074Z,66.30
2019-01-20T13:46:11.644Z,68.10
2019-01-20T13:48:42.104Z,69.50
2019-01-20T13:51:12.770Z,69.30
2019-01-20T13:53:43.230Z,69.50
2019-01-20T13:56:13.799Z,68.40
2019-01-20T13:58:45.069Z,66.50
2019-01-20T14:01:15.522Z,67.40
2019-01-20T14:03:46.098Z,68.40
2019-01-20T14:06:16.604Z,68.60
2019-01-20T14:08:47.078Z,69.70
2019-01-20T14:11:20.213Z,70.40
2019-01-20T14:13:50.885Z,71.20
2019-01-20T14:16:21.420Z,71.50
2019-01-20T14:18:51.895Z,71.80
2019-01-20T14:21:22.388Z,72.00
2019-01-20T14:23:52.846Z,72.10
2019-01-20T14:26:23.514Z,70.40
2019-01-20T14:28:54.044Z,69.70
2019-01-20T14:31:24.625Z,70.70
2019-01-20T14:33:55.101Z,70.50
2019-01-20T14:36:26.160Z,70.40
2019-01-20T14:38:56.620Z,70.40
2019-01-20T14:41:27.115Z,70.60
2019-01-20T14:43:57.605Z,70.10
2019-01-20T14:46:28.063Z,70.40
2019-01-20T14:48:58.552Z,70.20
2019-01-20T14:51:32.793Z,70.70
2019-01-20T14:54:03.291Z,70.40
2019-01-20T14:56:33.745Z,69.10
2019-01-20T14:59:04.387Z,69.20
2019-01-20T15:01:34.949Z,70.10
2019-01-20T15:04:05.784Z,71.10
2019-01-20T15:06:36.344Z,71.50
2019-01-20T15:09:08.408Z,71.60
2019-01-20T15:11:38.921Z,72.20
2019-01-20T15:14:09.431Z,72.60
2019-01-20T15:16:39.894Z,73.50
2019-01-20T15:19:10.411Z,74.20
2019-01-20T15:21:41.366Z,74.30
2019-01-20T15:24:11.831Z,75.40
2019-01-20T15:26:42.320Z,76.90
2019-01-20T15:29:12.874Z,77.70
2019-01-20T15:31:43.334Z,78.00
2019-01-20T15:34:13.910Z,79.30
2019-01-20T15:36:44.389Z,80.60
2019-01-20T15:39:14.885Z,82.60
2019-01-20T15:41:45.421Z,83.70
2019-01-20T15:44:15.912Z,84.60
2019-01-20T15:46:46.395Z,85.70
2019-01-20T15:49:16.894Z,85.40
2019-01-20T15:51:47.400Z,85.90
2019-01-20T15:54:17.877Z,85.50
2019-01-20T15:56:48.364Z,85.40
2019-01-20T15:59:18.833Z,85.70
2019-01-20T16:01:49.319Z,85.80
2019-01-20T16:04:23.990Z,86.30
2019-01-20T16:06:51.965Z,86.90
2019-01-20T16:09:22.441Z,87.60
2019-01-20T16:11:52.946Z,87.90
2019-01-20T16:14:23.411Z,88.20
2019-01-20T16:16:53.915Z,88.60
2019-01-20T16:19:24.386Z,89.00
2019-01-20T16:21:54.907Z,89.60
2019-01-20T16:24:29.352Z,90.50
2019-01-20T16:27:01.117Z,91.00
2019-01-20T16:29:31.822Z,90.60
2019-01-20T16:32:02.288Z,90.60
2019-01-20T16:34:33.467Z,90.70
2019-01-20T16:37:04.001Z,90.90
2019-01-20T16:39:34.500Z,91.00
2019-01-20T16:42:05.199Z,91.30
2019-01-20T16:44:35.704Z,91.60
2019-01-20T16:47:06.250Z,91.80
2019-01-20T16:49:36.754Z,91.70
2019-01-20T16:52:08.879Z,91.60
2019-01-20T16:54:39.357Z,91.70
2019-01-20T16:57:09.927Z,91.60
2019-01-20T16:59:40.402Z,91.90
2019-01-20T17:02:10.905Z,92.20
2019-01-20T17:04:41.431Z,92.30
2019-01-20T17:07:13.585Z,92.50
2019-01-20T17:09:44.054Z,92.50
2019-01-20T17:12:14.566Z,92.60
2019-01-20T17:14:45.034Z,92.70
2019-01-20T17:17:15.545Z,92.80
2019-01-20T17:19:46.063Z,93.00
2019-01-20T17:22:16.543Z,93.20
2019-01-20T17:24:47.041Z,93.40
2019-01-20T17:27:17.543Z,93.50
2019-01-20T17:29:48.049Z,93.60
2019-01-20T17:32:19.721Z,93.60
2019-01-20T17:34:50.194Z,93.60
2019-01-20T17:37:20.706Z,93.60
2019-01-20T17:40:04.958Z,93.70
2019-01-20T17:42:35.461Z,93.80
2019-01-20T17:45:10.731Z,93.80
2019-01-20T17:47:41.189Z,94.00
2019-01-20T17:50:27.792Z,94.00
2019-01-20T17:52:58.333Z,94.10
2019-01-20T17:55:28.844Z,94.10
2019-01-20T17:57:59.346Z,94.10
2019-01-20T18:00:38.713Z,94.10
2019-01-20T18:03:10.220Z,94.20
2019-01-20T18:05:40.976Z,94.40
2019-01-20T18:08:11.579Z,94.40
2019-01-20T18:10:43.177Z,94.40
2019-01-20T18:13:13.881Z,94.60
2019-01-20T18:15:44.384Z,94.50
2019-01-20T18:18:14.938Z,94.70
2019-01-20T18:20:45.461Z,93.90
2019-01-20T18:23:16.032Z,93.60
2019-01-20T18:25:46.541Z,93.70
2019-01-20T18:28:17.027Z,94.10
2019-01-20T18:30:47.549Z,93.80
2019-01-20T18:33:18.062Z,93.70
2019-01-20T18:35:48.750Z,93.50
2019-01-20T18:38:19.241Z,93.50
2019-01-20T18:40:49.797Z,93.40
2019-01-20T18:43:20.304Z,93.20
2019-01-20T18:45:50.783Z,93.00
2019-01-20T18:48:21.299Z,92.90
2019-01-20T18:50:51.919Z,93.00
2019-01-20T18:53:22.416Z,92.80
2019-01-20T18:55:52.917Z,92.90
2019-01-20T18:58:23.412Z,93.00
2019-01-20T19:00:54.035Z,93.10
2019-01-20T19:03:24.554Z,93.10
2019-01-20T19:05:55.028Z,93.20
2019-01-20T19:08:25.545Z,93.10
2019-01-20T19:10:56.054Z,93.10
2019-01-20T19:13:26.556Z,93.20
2019-01-20T19:15:57.076Z,93.30
2019-01-20T19:18:28.423Z,93.30
2019-01-20T19:20:58.949Z,93.40
2019-01-20T19:23:29.486Z,93.50
2019-01-20T19:25:59.992Z,93.50
2019-01-20T19:28:30.460Z,93.70
2019-01-20T19:31:00.969Z,93.80
2019-01-20T19:33:32.822Z,94.00
2019-01-20T19:36:03.360Z,93.90
2019-01-20T19:38:33.846Z,93.90
2019-01-20T19:41:04.357Z,93.90
2019-01-20T19:43:34.849Z,94.00
2019-01-20T19:46:05.425Z,94.10
2019-01-20T19:48:35.906Z,94.20
2019-01-20T19:51:06.562Z,94.30
2019-01-20T19:53:37.040Z,94.40
2019-01-20T19:56:07.541Z,94.30
2019-01-20T19:58:38.019Z,94.10
2019-01-20T20:01:08.580Z,94.20
2019-01-20T20:03:39.085Z,94.30
2019-01-20T20:06:09.655Z,94.40
2019-01-20T20:08:40.163Z,94.30
2019-01-20T20:11:10.674Z,94.40
2019-01-20T20:13:41.157Z,94.50
2019-01-20T20:16:11.680Z,94.70
2019-01-20T20:18:42.158Z,94.70
2019-01-20T20:21:12.667Z,94.70
2019-01-20T20:23:43.177Z,94.60
2019-01-20T20:26:13.661Z,94.80
2019-01-20T20:28:44.178Z,94.80
2019-01-20T20:31:14.676Z,94.60
2019-01-20T20:33:45.212Z,94.30
2019-01-20T20:36:15.683Z,94.10
2019-01-20T20:38:46.199Z,94.10
2019-01-20T20:41:16.751Z,94.10
2019-01-20T20:43:47.254Z,94.20
2019-01-20T20:46:17.775Z,94.30
2019-01-20T20:48:48.263Z,94.20
2019-01-20T20:51:18.780Z,94.20
2019-01-20T20:53:49.695Z,94.40
2019-01-20T20:56:20.244Z,94.30
2019-01-20T20:58:50.727Z,94.90
2019-01-20T21:01:21.357Z,94.70
2019-01-20T21:03:51.912Z,95.10
2019-01-20T21:06:22.442Z,95.10
2019-01-20T21:08:52.921Z,95.20
2019-01-20T21:11:24.907Z,95.10
2019-01-20T21:13:55.385Z,95.10
2019-01-20T21:16:25.904Z,95.30
2019-01-20T21:18:56.428Z,95.30
2019-01-20T21:21:26.944Z,95.30
2019-01-20T21:23:57.422Z,95.20
2019-01-20T21:26:28.003Z,95.20
2019-01-20T21:28:58.515Z,95.30
2019-01-20T21:31:29.043Z,95.70
2019-01-20T21:33:59.524Z,95.90
2019-01-20T21:36:30.056Z,95.90
2019-01-20T21:39:02.078Z,95.90
2019-01-20T21:41:32.585Z,95.70
2019-01-20T21:44:03.137Z,95.70
2019-01-20T21:46:33.665Z,95.80
2019-01-20T21:49:04.207Z,95.80
2019-01-20T21:51:34.713Z,95.90
2019-01-20T21:54:05.399Z,95.90
2019-01-20T21:56:35.938Z,95.80
2019-01-20T21:59:08.565Z,95.70
2019-01-20T22:01:39.037Z,95.70
2019-01-20T22:04:09.577Z,95.70
2019-01-20T22:06:40.089Z,95.70
2019-01-20T22:09:10.649Z,95.60
2019-01-20T22:11:41.133Z,96.10
2019-01-20T22:14:11.636Z,95.70
2019-01-20T22:16:42.150Z,95.60
2019-01-20T22:19:12.629Z,95.50
2019-01-20T22:21:43.131Z,95.60
2019-01-20T22:24:13.650Z,95.40
2019-01-20T22:26:44.168Z,95.40
2019-01-20T22:29:14.658Z,95.50
2019-01-20T22:31:45.163Z,95.60
2019-01-20T22:34:15.639Z,95.30
2019-01-20T22:36:46.280Z,95.40
2019-01-20T22:39:16.797Z,95.60
2019-01-20T22:41:47.328Z,96.00
2019-01-20T22:44:17.828Z,96.00
2019-01-20T22:46:48.361Z,95.80
2019-01-20T22:49:18.849Z,95.70
2019-01-20T22:51:49.425Z,95.40
2019-01-20T22:54:19.939Z,95.40
2019-01-20T22:56:50.426Z,95.40
2019-01-20T22:59:20.913Z,95.60
2019-01-20T23:01:51.476Z,95.70
2019-01-20T23:04:21.976Z,95.80
2019-01-20T23:06:52.456Z,95.90
2019-01-20T23:09:23.028Z,95.90
2019-01-20T23:11:53.508Z,95.90
2019-01-20T23:14:24.015Z,95.80
2019-01-20T23:16:54.519Z,95.60
2019-01-20T23:19:25.005Z,95.70
2019-01-20T23:21:55.562Z,95.90
2019-01-20T23:24:26.080Z,95.90
2019-01-20T23:26:56.605Z,96.00
2019-01-20T23:29:27.116Z,96.00
2019-01-20T23:31:57.617Z,96.10
2019-01-20T23:34:28.127Z,95.90
2019-01-20T23:36:58.616Z,96.20
2019-01-20T23:39:29.147Z,96.00
2019-01-20T23:41:59.626Z,95.70
2019-01-20T23:44:30.133Z,95.70
2019-01-20T23:47:00.607Z,95.90
2019-01-20T23:49:31.120Z,96.30
2019-01-20T23:52:01.677Z,96.10
2019-01-20T23:54:33.731Z,96.50
2019-01-20T23:57:04.272Z,96.00
2019-01-20T23:59:34.816Z,96.00
